Head of the Harbor, New York
Current Conditions -  °F | °C
As of 10:56 PM on Saturday 22 Nov 2014 (Local Time) from KISP Reporting Station
Broken Clouds Broken Clouds  
Wind Chill: 37°   Ceiling: 7000
Heat Index: 43°   Visibility: 10mi
Dew Point: 24°   Wind: 12mph
Humidity: 47%   Direction: 230°SW
Pressure: 30.2"   Gusts: NA
Location:  40.9035°N, 73.127°W
Report Text: KISP 230356Z 23010KT 10SM BKN070 06/M04 A3020 RMK AO2 SLP227 T00611044
Loading
Personal Weather Stations






























Interactive Weather Map New forecast layout! Learn more

10-Day Weather Forecast

Advertisements
Track Severe Weather on mobile